M17 weather

Bolivar Municipal Airport
Bolivar, Missouri, United States

Public forecast

Using degrees Fahrenheit for public forecast. Weather courtesy of forecast.io.

METAR (pilot weather report)

Closest report is Springfield Branson National Airport, 21.1 nm (39.1 km) S. Retrieved 2019/04/26 09:52 UTC (21 minutes ago):

KSGF 260952Z 29005KT 10SM CLR 10/05 A3004 RMK AO2 SLP168 T01000050

TAF (pilot weather forecast)

Closest forecast is Springfield Branson National Airport, 21.1 nm (39.1 km) S. Retrieved 2019/04/26 06:22 UTC (4 hours ago):

TAF KSGF 260520Z 2606/2706 33010KT P6SM SKC FM261500 35010G17KT P6SM SKC